Time,TemperatureF,DewpointF,PressureIn,WindDirection,WindDirectionDegrees,WindSpeedMPH,WindSpeedGustMPH,Humidity,HourlyPrecipIn,Conditions,Clouds,dailyrainin,SoftwareType,DateUTC
2013-09-16 00:02:00,57.0,34.0,-100.00,SE,130,1.0,4.0,41,0.00,,,-99.99,,2013-09-16 07:02:00,
2013-09-16 00:43:00,58.0,33.0,-100.00,SE,137,1.0,3.0,38,0.00,,,-99.99,,2013-09-16 07:43:00,
2013-09-16 00:52:00,60.0,32.0,-100.00,East,100,2.0,6.0,34,0.00,,,-99.99,,2013-09-16 07:52:00,
2013-09-16 01:02:00,60.0,32.0,-100.00,East,100,2.0,6.0,34,0.00,,,-99.99,,2013-09-16 08:02:00,
2013-09-16 01:11:00,60.0,32.0,-100.00,East,100,2.0,6.0,34,0.00,,,-99.99,,2013-09-16 08:11:00,
2013-09-16 01:42:00,59.0,31.0,-100.00,ESE,109,2.0,8.0,35,0.00,,,-99.99,,2013-09-16 08:42:00,
2013-09-16 01:52:00,59.0,31.0,-100.00,ESE,109,2.0,8.0,35,0.00,,,-99.99,,2013-09-16 08:52:00,
2013-09-16 02:22:00,60.0,34.0,-100.00,SE,140,2.0,5.0,37,0.00,,,-99.99,,2013-09-16 09:22:00,
2013-09-16 02:23:00,60.0,32.0,-100.00,ESE,113,3.0,10.0,35,0.00,,,-99.99,,2013-09-16 09:23:00,
2013-09-16 02:33:00,60.0,34.0,-100.00,SE,140,2.0,5.0,37,0.00,,,-99.99,,2013-09-16 09:33:00,
2013-09-16 03:12:00,60.0,32.0,-100.00,ESE,113,3.0,10.0,35,0.00,,,-99.99,,2013-09-16 10:12:00,
2013-09-16 03:42:00,57.0,32.0,-100.00,SE,133,1.0,3.0,39,0.00,,,-99.99,,2013-09-16 10:42:00,
2013-09-16 04:42:00,57.0,32.0,-100.00,East,86,2.0,6.0,39,0.00,,,-99.99,,2013-09-16 11:42:00,
2013-09-16 04:52:00,57.0,33.0,-100.00,ESE,107,2.0,5.0,40,0.00,,,-99.99,,2013-09-16 11:52:00,
2013-09-16 05:01:00,57.0,33.0,-100.00,ESE,107,2.0,5.0,40,0.00,,,-99.99,,2013-09-16 12:01:00,
2013-09-16 05:22:00,58.0,32.0,-100.00,East,100,2.0,7.0,37,0.00,,,-99.99,,2013-09-16 12:22:00,
2013-09-16 05:32:00,58.0,32.0,-100.00,East,100,2.0,7.0,37,0.00,,,-99.99,,2013-09-16 12:32:00,
2013-09-16 05:52:00,58.0,34.0,-100.00,ESE,109,2.0,4.0,41,0.00,,,-99.99,,2013-09-16 12:52:00,
2013-09-16 06:11:00,58.0,33.0,-100.00,ESE,109,3.0,8.0,38,0.00,,,-99.99,,2013-09-16 13:11:00,
2013-09-16 06:21:00,58.0,33.0,-100.00,ESE,109,3.0,8.0,38,0.00,,,-99.99,,2013-09-16 13:21:00,
2013-09-16 06:42:00,57.0,32.0,-100.00,East,95,2.0,4.0,39,0.00,,,-99.99,,2013-09-16 13:42:00,
2013-09-16 06:52:00,57.0,33.0,-100.00,ESE,114,2.0,5.0,40,0.00,,,-99.99,,2013-09-16 13:52:00,
2013-09-16 07:02:00,57.0,33.0,-100.00,ESE,114,2.0,5.0,40,0.00,,,-99.99,,2013-09-16 14:02:00,
2013-09-16 07:11:00,57.0,33.0,-100.00,ESE,114,2.0,5.0,40,0.00,,,-99.99,,2013-09-16 14:11:00,
2013-09-16 08:11:00,56.0,36.0,-100.00,East,100,1.0,5.0,46,0.00,,,-99.99,,2013-09-16 15:11:00,
2013-09-16 08:22:00,56.0,36.0,-100.00,ESE,117,1.0,2.0,46,0.00,,,-99.99,,2013-09-16 15:22:00,
2013-09-16 08:43:00,58.0,35.0,-100.00,ENE,71,1.0,4.0,42,0.00,,,-99.99,,2013-09-16 15:43:00,
2013-09-16 09:12:00,58.0,37.0,-100.00,SE,124,1.0,3.0,46,0.00,,,-99.99,,2013-09-16 16:12:00,
2013-09-16 09:23:00,61.0,38.0,-100.00,ESE,113,0.0,2.0,43,0.00,,,-99.99,,2013-09-16 16:23:00,
2013-09-16 09:43:00,63.0,37.0,-100.00,ESE,106,1.0,4.0,38,0.00,,,-99.99,,2013-09-16 16:43:00,
2013-09-16 09:52:00,63.0,37.0,-100.00,ESE,106,1.0,4.0,38,0.00,,,-99.99,,2013-09-16 16:52:00,
2013-09-16 10:02:00,63.0,37.0,-100.00,ESE,106,1.0,4.0,38,0.00,,,-99.99,,2013-09-16 17:02:00,
2013-09-16 10:23:00,66.0,34.0,-100.00,NE,44,3.0,8.0,31,0.00,,,-99.99,,2013-09-16 17:23:00,
2013-09-16 10:42:00,67.0,33.0,-100.00,NW,326,2.0,7.0,28,0.00,,,-99.99,,2013-09-16 17:42:00,
2013-09-16 10:53:00,68.0,35.0,-100.00,ENE,64,2.0,6.0,30,0.00,,,-99.99,,2013-09-16 17:53:00,
2013-09-16 11:02:00,68.0,35.0,-100.00,ENE,64,2.0,6.0,30,0.00,,,-99.99,,2013-09-16 18:02:00,
2013-09-16 11:22:00,70.0,36.0,-100.00,NNE,27,4.0,10.0,29,0.00,,,-99.99,,2013-09-16 18:22:00,
2013-09-16 11:42:00,71.0,37.0,-100.00,NE,42,5.0,10.0,29,0.00,,,-99.99,,2013-09-16 18:42:00,
2013-09-16 11:52:00,71.0,36.0,-100.00,NE,42,4.0,9.0,28,0.00,,,-99.99,,2013-09-16 18:52:00,
2013-09-16 12:11:00,73.0,37.0,-100.00,NE,42,5.0,10.0,27,0.00,,,-99.99,,2013-09-16 19:11:00,
2013-09-16 12:22:00,73.0,37.0,-100.00,NE,42,5.0,10.0,27,0.00,,,-99.99,,2013-09-16 19:22:00,
2013-09-16 12:31:00,73.0,37.0,-100.00,NE,42,5.0,10.0,27,0.00,,,-99.99,,2013-09-16 19:31:00,
2013-09-16 13:22:00,74.0,36.0,-100.00,NE,44,5.0,13.0,25,0.00,,,-99.99,,2013-09-16 20:22:00,
2013-09-16 13:32:00,74.0,36.0,-100.00,NE,44,5.0,13.0,25,0.00,,,-99.99,,2013-09-16 20:32:00,
2013-09-16 14:11:00,75.0,39.0,-100.00,NE,47,6.0,11.0,27,0.00,,,-99.99,,2013-09-16 21:11:00,
2013-09-16 14:21:00,75.0,37.0,-100.00,NE,52,6.0,17.0,25,0.00,,,-99.99,,2013-09-16 21:21:00,
2013-09-16 14:34:00,75.0,37.0,-100.00,NE,52,6.0,17.0,25,0.00,,,-99.99,,2013-09-16 21:34:00,
2013-09-16 14:44:00,75.0,37.0,-100.00,NE,52,6.0,17.0,25,0.00,,,-99.99,,2013-09-16 21:44:00,
2013-09-16 15:13:00,76.0,39.0,-100.00,NE,45,6.0,13.0,26,0.00,,,-99.99,,2013-09-16 22:13:00,
2013-09-16 15:24:00,75.0,39.0,-100.00,NE,47,6.0,14.0,27,0.00,,,-99.99,,2013-09-16 22:24:00,
2013-09-16 15:32:00,75.0,37.0,-100.00,NE,37,5.0,11.0,25,0.00,,,-99.99,,2013-09-16 22:32:00,
2013-09-16 15:33:00,75.0,39.0,-100.00,NE,47,6.0,14.0,27,0.00,,,-99.99,,2013-09-16 22:33:00,
2013-09-16 15:42:00,75.0,39.0,-100.00,NE,47,6.0,14.0,27,0.00,,,-99.99,,2013-09-16 22:42:00,
2013-09-16 15:53:00,75.0,37.0,-100.00,NE,49,7.0,13.0,25,0.00,,,-99.99,,2013-09-16 22:53:00,
2013-09-16 16:12:00,75.0,37.0,-100.00,NE,37,5.0,11.0,25,0.00,,,-99.99,,2013-09-16 23:12:00,
2013-09-16 16:22:00,75.0,37.0,-100.00,NE,37,5.0,11.0,25,0.00,,,-99.99,,2013-09-16 23:22:00,
2013-09-16 16:53:00,75.0,37.0,-100.00,NNE,32,4.0,11.0,25,0.00,,,-99.99,,2013-09-16 23:53:00,
2013-09-16 17:02:00,75.0,37.0,-100.00,NNE,32,4.0,11.0,25,0.00,,,-99.99,,2013-09-17 00:02:00,
2013-09-16 17:11:00,75.0,37.0,-100.00,NNE,32,4.0,11.0,25,0.00,,,-99.99,,2013-09-17 00:11:00,
2013-09-16 17:21:00,74.0,35.0,-100.00,NE,42,4.0,10.0,24,0.00,,,-99.99,,2013-09-17 00:21:00,
2013-09-16 17:42:00,74.0,38.0,-100.00,NE,42,5.0,9.0,27,0.00,,,-99.99,,2013-09-17 00:42:00,
2013-09-16 17:52:00,72.0,36.0,-100.00,NE,45,5.0,8.0,27,0.00,,,-99.99,,2013-09-17 00:52:00,
2013-09-16 18:11:00,72.0,39.0,-100.00,NE,38,3.0,9.0,30,0.00,,,-99.99,,2013-09-17 01:11:00,
2013-09-16 18:21:00,72.0,39.0,-100.00,NE,38,3.0,9.0,30,0.00,,,-99.99,,2013-09-17 01:21:00,
2013-09-16 18:41:00,70.0,39.0,-100.00,NE,42,3.0,7.0,32,0.00,,,-99.99,,2013-09-17 01:41:00,
2013-09-16 19:11:00,69.0,41.0,-100.00,NE,42,4.0,8.0,36,0.00,,,-99.99,,2013-09-17 02:11:00,
2013-09-16 19:22:00,68.0,41.0,-100.00,NE,49,4.0,8.0,38,0.00,,,-99.99,,2013-09-17 02:22:00,
2013-09-16 19:32:00,68.0,41.0,-100.00,NE,49,4.0,8.0,38,0.00,,,-99.99,,2013-09-17 02:32:00,
2013-09-16 19:42:00,68.0,41.0,-100.00,NE,49,4.0,8.0,38,0.00,,,-99.99,,2013-09-17 02:42:00,
2013-09-16 20:11:00,63.0,41.0,-100.00,East,92,1.0,3.0,45,0.00,,,-99.99,,2013-09-17 03:11:00,
2013-09-16 20:23:00,61.0,42.0,-100.00,SE,127,1.0,3.0,50,0.00,,,-99.99,,2013-09-17 03:23:00,
2013-09-16 20:34:00,61.0,42.0,-100.00,SE,127,1.0,3.0,50,0.00,,,-99.99,,2013-09-17 03:34:00,
2013-09-16 20:45:00,61.0,42.0,-100.00,SE,127,1.0,3.0,50,0.00,,,-99.99,,2013-09-17 03:45:00,
2013-09-16 22:42:00,57.0,41.0,-100.00,SE,138,1.0,3.0,56,0.00,,,-99.99,,2013-09-17 05:42:00,
2013-09-16 22:52:00,55.0,40.0,-100.00,SSE,152,1.0,2.0,57,0.00,,,-99.99,,2013-09-17 05:52:00,
2013-09-16 23:12:00,55.0,40.0,-100.00,SSE,160,1.0,2.0,56,0.00,,,-99.99,,2013-09-17 06:12:00,
2013-09-16 23:22:00,55.0,40.0,-100.00,SSE,160,1.0,2.0,56,0.00,,,-99.99,,2013-09-17 06:22:00,
2013-09-16 23:32:00,55.0,40.0,-100.00,SSE,160,1.0,2.0,56,0.00,,,-99.99,,2013-09-17 06:32:00,